sensor_id;sensor_type;location;lat;lon;timestamp;P1;durP1;ratioP1;P2;durP2;ratioP2
51491;SDS011;37569;50.548;8.778;2023-07-20T00:03:43;5.5;;;3.6;;
51491;SDS011;37569;50.548;8.778;2023-07-20T00:08:43;6.3;;;3.5;;
51491;SDS011;37569;50.548;8.778;2023-07-20T00:13:44;5;;;3.4;;
51491;SDS011;37569;50.548;8.778;2023-07-20T00:18:45;5.5;;;3.9;;
51491;SDS011;37569;50.548;8.778;2023-07-20T00:23:46;5.8;;;3.6;;
51491;SDS011;37569;50.548;8.778;2023-07-20T00:28:48;7.5;;;4;;
51491;SDS011;37569;50.548;8.778;2023-07-20T00:33:47;5.4;;;3.7;;
51491;SDS011;37569;50.548;8.778;2023-07-20T00:38:48;5.8;;;4.1;;
51491;SDS011;37569;50.548;8.778;2023-07-20T00:43:49;4.8;;;3.8;;
51491;SDS011;37569;50.548;8.778;2023-07-20T00:48:49;5.9;;;3.9;;
51491;SDS011;37569;50.548;8.778;2023-07-20T00:53:50;6.6;;;4;;
51491;SDS011;37569;50.548;8.778;2023-07-20T00:58:51;5.4;;;4.3;;
51491;SDS011;37569;50.548;8.778;2023-07-20T01:03:51;7.5;;;4.1;;
51491;SDS011;37569;50.548;8.778;2023-07-20T01:09:00;5.9;;;4.3;;
51491;SDS011;37569;50.548;8.778;2023-07-20T01:13:53;7.4;;;4.3;;
51491;SDS011;37569;50.548;8.778;2023-07-20T01:18:54;7.4;;;4.3;;
51491;SDS011;37569;50.548;8.778;2023-07-20T01:24:00;6.8;;;4.6;;
51491;SDS011;37569;50.548;8.778;2023-07-20T01:28:57;8;;;4.7;;
51491;SDS011;37569;50.548;8.778;2023-07-20T01:33:57;7.8;;;4.4;;
51491;SDS011;37569;50.548;8.778;2023-07-20T01:38:57;5.8;;;4.2;;
51491;SDS011;37569;50.548;8.778;2023-07-20T01:43:57;6;;;4.8;;
51491;SDS011;37569;50.548;8.778;2023-07-20T01:48:58;6.6;;;4.5;;
51491;SDS011;37569;50.548;8.778;2023-07-20T01:53:59;6;;;4.2;;
51491;SDS011;37569;50.548;8.778;2023-07-20T01:58:59;6;;;4.4;;
51491;SDS011;37569;50.548;8.778;2023-07-20T02:04:00;6.8;;;4.3;;
51491;SDS011;37569;50.548;8.778;2023-07-20T02:09:01;8.4;;;4.5;;
51491;SDS011;37569;50.548;8.778;2023-07-20T02:14:02;8.6;;;4.2;;
51491;SDS011;37569;50.548;8.778;2023-07-20T02:19:02;5.2;;;3.7;;
51491;SDS011;37569;50.548;8.778;2023-07-20T02:24:03;7.8;;;3.9;;
51491;SDS011;37569;50.548;8.778;2023-07-20T02:29:04;7;;;4.2;;
51491;SDS011;37569;50.548;8.778;2023-07-20T02:34:04;7.1;;;4.1;;
51491;SDS011;37569;50.548;8.778;2023-07-20T02:39:05;5.5;;;3.9;;
51491;SDS011;37569;50.548;8.778;2023-07-20T02:44:06;5.7;;;3.9;;
51491;SDS011;37569;50.548;8.778;2023-07-20T02:49:07;7.6;;;3.9;;
51491;SDS011;37569;50.548;8.778;2023-07-20T02:54:07;6.7;;;3.7;;
51491;SDS011;37569;50.548;8.778;2023-07-20T02:59:08;5.8;;;3.9;;
51491;SDS011;37569;50.548;8.778;2023-07-20T03:04:09;6.8;;;3.5;;
51491;SDS011;37569;50.548;8.778;2023-07-20T03:09:09;5.5;;;3.7;;
51491;SDS011;37569;50.548;8.778;2023-07-20T03:14:10;5.4;;;3.5;;
51491;SDS011;37569;50.548;8.778;2023-07-20T03:19:11;6.4;;;3.9;;
51491;SDS011;37569;50.548;8.778;2023-07-20T03:24:11;5.9;;;3.7;;
51491;SDS011;37569;50.548;8.778;2023-07-20T03:29:12;6.9;;;3.8;;
51491;SDS011;37569;50.548;8.778;2023-07-20T03:34:13;6.7;;;3.3;;
51491;SDS011;37569;50.548;8.778;2023-07-20T03:39:13;7.3;;;3.5;;
51491;SDS011;37569;50.548;8.778;2023-07-20T03:44:14;6.1;;;3.4;;
51491;SDS011;37569;50.548;8.778;2023-07-20T03:49:15;7.3;;;3.7;;
51491;SDS011;37569;50.548;8.778;2023-07-20T03:54:15;8.5;;;3.5;;
51491;SDS011;37569;50.548;8.778;2023-07-20T03:59:16;6.6;;;3.9;;
51491;SDS011;37569;50.548;8.778;2023-07-20T04:04:17;7.8;;;3.8;;
51491;SDS011;37569;50.548;8.778;2023-07-20T04:09:18;6;;;4.1;;
51491;SDS011;37569;50.548;8.778;2023-07-20T04:14:18;6.5;;;3.8;;
51491;SDS011;37569;50.548;8.778;2023-07-20T04:19:19;6.9;;;4.5;;
51491;SDS011;37569;50.548;8.778;2023-07-20T04:24:20;6.3;;;4.5;;
51491;SDS011;37569;50.548;8.778;2023-07-20T04:29:20;6.7;;;4.3;;
51491;SDS011;37569;50.548;8.778;2023-07-20T04:34:21;7.6;;;4.6;;
51491;SDS011;37569;50.548;8.778;2023-07-20T04:39:22;7.7;;;4.7;;
51491;SDS011;37569;50.548;8.778;2023-07-20T04:44:23;6.9;;;4.7;;
51491;SDS011;37569;50.548;8.778;2023-07-20T04:49:23;10.4;;;4.8;;
51491;SDS011;37569;50.548;8.778;2023-07-20T04:54:24;8.4;;;4.3;;
51491;SDS011;37569;50.548;8.778;2023-07-20T04:59:25;7.7;;;4.5;;
51491;SDS011;37569;50.548;8.778;2023-07-20T05:04:26;6.9;;;4.8;;
51491;SDS011;37569;50.548;8.778;2023-07-20T05:09:26;6.1;;;4.7;;
51491;SDS011;37569;50.548;8.778;2023-07-20T05:14:27;6.5;;;4.5;;
51491;SDS011;37569;50.548;8.778;2023-07-20T05:19:28;6.2;;;4.3;;
51491;SDS011;37569;50.548;8.778;2023-07-20T05:24:29;7.2;;;4.7;;
51491;SDS011;37569;50.548;8.778;2023-07-20T05:29:29;7.1;;;4.5;;
51491;SDS011;37569;50.548;8.778;2023-07-20T05:34:30;7.4;;;4.3;;
51491;SDS011;37569;50.548;8.778;2023-07-20T05:39:31;7.8;;;4.6;;
51491;SDS011;37569;50.548;8.778;2023-07-20T05:44:32;7;;;4.5;;
51491;SDS011;37569;50.548;8.778;2023-07-20T05:49:34;6.7;;;4.4;;
51491;SDS011;37569;50.548;8.778;2023-07-20T05:54:33;7.4;;;4.4;;
51491;SDS011;37569;50.548;8.778;2023-07-20T05:59:34;5.9;;;4.4;;
51491;SDS011;37569;50.548;8.778;2023-07-20T06:04:35;6.7;;;5.1;;
51491;SDS011;37569;50.548;8.778;2023-07-20T06:09:36;5.7;;;4.6;;
51491;SDS011;37569;50.548;8.778;2023-07-20T06:14:37;8.4;;;4.8;;
51491;SDS011;37569;50.548;8.778;2023-07-20T06:19:38;7.1;;;4.6;;
51491;SDS011;37569;50.548;8.778;2023-07-20T06:24:39;6.4;;;5.2;;
51491;SDS011;37569;50.548;8.778;2023-07-20T06:29:40;6.8;;;5.4;;
51491;SDS011;37569;50.548;8.778;2023-07-20T06:34:41;8.5;;;5.6;;
51491;SDS011;37569;50.548;8.778;2023-07-20T06:39:42;6.1;;;4.6;;
51491;SDS011;37569;50.548;8.778;2023-07-20T06:44:42;5.9;;;5.3;;
51491;SDS011;37569;50.548;8.778;2023-07-20T06:49:43;6.6;;;5.1;;
51491;SDS011;37569;50.548;8.778;2023-07-20T06:54:44;6.4;;;5.8;;
51491;SDS011;37569;50.548;8.778;2023-07-20T06:59:45;7.6;;;5.7;;
51491;SDS011;37569;50.548;8.778;2023-07-20T07:04:46;8.4;;;6.3;;
51491;SDS011;37569;50.548;8.778;2023-07-20T07:09:47;8;;;6.8;;
51491;SDS011;37569;50.548;8.778;2023-07-20T07:14:48;9.6;;;6.9;;
51491;SDS011;37569;50.548;8.778;2023-07-20T07:19:49;6.8;;;6.2;;
51491;SDS011;37569;50.548;8.778;2023-07-20T07:24:50;7;;;6.3;;
51491;SDS011;37569;50.548;8.778;2023-07-20T07:29:51;7.1;;;6.4;;
51491;SDS011;37569;50.548;8.778;2023-07-20T07:34:52;7.9;;;7.1;;
51491;SDS011;37569;50.548;8.778;2023-07-20T07:39:53;9.1;;;7.2;;
51491;SDS011;37569;50.548;8.778;2023-07-20T07:44:54;6.9;;;6.2;;
51491;SDS011;37569;50.548;8.778;2023-07-20T07:49:55;6.2;;;5.6;;
51491;SDS011;37569;50.548;8.778;2023-07-20T07:54:56;9.3;;;6.4;;
51491;SDS011;37569;50.548;8.778;2023-07-20T07:59:57;7.4;;;6.1;;
51491;SDS011;37569;50.548;8.778;2023-07-20T08:04:59;8.3;;;6.8;;
51491;SDS011;37569;50.548;8.778;2023-07-20T08:10:00;7.9;;;6;;
51491;SDS011;37569;50.548;8.778;2023-07-20T08:15:01;6.6;;;5.9;;
51491;SDS011;37569;50.548;8.778;2023-07-20T08:20:02;6.8;;;6;;
51491;SDS011;37569;50.548;8.778;2023-07-20T08:25:03;6.4;;;5.7;;
51491;SDS011;37569;50.548;8.778;2023-07-20T08:30:04;6.7;;;4.5;;
51491;SDS011;37569;50.548;8.778;2023-07-20T08:35:05;6;;;4.5;;
51491;SDS011;37569;50.548;8.778;2023-07-20T08:40:06;7.4;;;5.1;;
51491;SDS011;37569;50.548;8.778;2023-07-20T08:45:07;5.7;;;5.1;;
51491;SDS011;37569;50.548;8.778;2023-07-20T08:50:08;6;;;4.9;;
51491;SDS011;37569;50.548;8.778;2023-07-20T08:55:09;5.4;;;4.6;;
51491;SDS011;37569;50.548;8.778;2023-07-20T09:00:10;7.8;;;5;;
51491;SDS011;37569;50.548;8.778;2023-07-20T09:05:11;6.5;;;5.2;;
51491;SDS011;37569;50.548;8.778;2023-07-20T09:10:12;8.1;;;5.2;;
51491;SDS011;37569;50.548;8.778;2023-07-20T09:15:13;8.3;;;5.5;;
51491;SDS011;37569;50.548;8.778;2023-07-20T09:20:14;6.7;;;5.7;;
51491;SDS011;37569;50.548;8.778;2023-07-20T09:25:15;7.4;;;6.1;;
51491;SDS011;37569;50.548;8.778;2023-07-20T09:30:16;6.4;;;5.5;;
51491;SDS011;37569;50.548;8.778;2023-07-20T09:35:17;5.8;;;5.2;;
51491;SDS011;37569;50.548;8.778;2023-07-20T09:40:18;5.4;;;4.9;;
51491;SDS011;37569;50.548;8.778;2023-07-20T09:45:19;5.6;;;4.9;;
51491;SDS011;37569;50.548;8.778;2023-07-20T09:50:20;6.3;;;4.8;;
51491;SDS011;37569;50.548;8.778;2023-07-20T09:55:21;7.2;;;4.7;;
51491;SDS011;37569;50.548;8.778;2023-07-20T10:00:22;5.1;;;4.6;;
51491;SDS011;37569;50.548;8.778;2023-07-20T10:05:23;5.1;;;4.6;;
51491;SDS011;37569;50.548;8.778;2023-07-20T10:10:24;4.3;;;3.9;;
51491;SDS011;37569;50.548;8.778;2023-07-20T10:15:27;5.3;;;3.7;;
51491;SDS011;37569;50.548;8.778;2023-07-20T10:20:27;4.3;;;3.5;;
51491;SDS011;37569;50.548;8.778;2023-07-20T10:25:27;4.1;;;3.4;;
51491;SDS011;37569;50.548;8.778;2023-07-20T10:30:29;3.5;;;3.2;;
51491;SDS011;37569;50.548;8.778;2023-07-20T10:35:30;4;;;3.1;;
51491;SDS011;37569;50.548;8.778;2023-07-20T10:40:31;4.6;;;3.4;;
51491;SDS011;37569;50.548;8.778;2023-07-20T10:45:33;4.6;;;3.2;;
51491;SDS011;37569;50.548;8.778;2023-07-20T10:50:33;5.7;;;3.2;;
51491;SDS011;37569;50.548;8.778;2023-07-20T10:55:34;4.1;;;3.4;;
51491;SDS011;37569;50.548;8.778;2023-07-20T11:00:35;4.3;;;3.2;;
51491;SDS011;37569;50.548;8.778;2023-07-20T11:05:38;3.3;;;3;;
51491;SDS011;37569;50.548;8.778;2023-07-20T11:10:38;3.9;;;2.8;;
51491;SDS011;37569;50.548;8.778;2023-07-20T11:15:47;4;;;2.9;;
51491;SDS011;37569;50.548;8.778;2023-07-20T11:20:40;3.8;;;2.9;;
51491;SDS011;37569;50.548;8.778;2023-07-20T11:25:41;3.8;;;2.8;;
51491;SDS011;37569;50.548;8.778;2023-07-20T11:30:42;3.3;;;2.9;;
51491;SDS011;37569;50.548;8.778;2023-07-20T11:35:43;3.2;;;2.9;;
51491;SDS011;37569;50.548;8.778;2023-07-20T11:40:44;3.4;;;3.1;;
51491;SDS011;37569;50.548;8.778;2023-07-20T11:45:45;3.6;;;2.8;;
51491;SDS011;37569;50.548;8.778;2023-07-20T11:50:46;3;;;2.7;;
51491;SDS011;37569;50.548;8.778;2023-07-20T11:55:48;3.4;;;2.8;;
51491;SDS011;37569;50.548;8.778;2023-07-20T12:00:49;4;;;2.6;;
51491;SDS011;37569;50.548;8.778;2023-07-20T12:05:50;4.2;;;2.8;;
51491;SDS011;37569;50.548;8.778;2023-07-20T12:10:51;4;;;2.9;;
51491;SDS011;37569;50.548;8.778;2023-07-20T12:15:52;3.4;;;2.9;;
51491;SDS011;37569;50.548;8.778;2023-07-20T12:20:58;4.1;;;3.1;;
51491;SDS011;37569;50.548;8.778;2023-07-20T12:25:55;3.7;;;3.1;;
51491;SDS011;37569;50.548;8.778;2023-07-20T12:30:56;3.7;;;3.2;;
51491;SDS011;37569;50.548;8.778;2023-07-20T12:35:57;4.9;;;3.3;;
51491;SDS011;37569;50.548;8.778;2023-07-20T12:40:59;4.2;;;3.3;;
51491;SDS011;37569;50.548;8.778;2023-07-20T12:45:59;4;;;3.6;;
51491;SDS011;37569;50.548;8.778;2023-07-20T12:51:00;4.4;;;3.3;;
51491;SDS011;37569;50.548;8.778;2023-07-20T12:56:01;5;;;3.4;;
51491;SDS011;37569;50.548;8.778;2023-07-20T13:01:02;5.5;;;3.2;;
51491;SDS011;37569;50.548;8.778;2023-07-20T13:06:03;5.6;;;3.3;;
51491;SDS011;37569;50.548;8.778;2023-07-20T13:11:04;3.9;;;3.2;;
51491;SDS011;37569;50.548;8.778;2023-07-20T13:16:05;4.2;;;3.2;;
51491;SDS011;37569;50.548;8.778;2023-07-20T13:21:06;3.7;;;3.3;;
51491;SDS011;37569;50.548;8.778;2023-07-20T13:26:07;3.3;;;2.9;;
51491;SDS011;37569;50.548;8.778;2023-07-20T13:31:08;4.4;;;3;;
51491;SDS011;37569;50.548;8.778;2023-07-20T13:36:09;4.7;;;3.1;;
51491;SDS011;37569;50.548;8.778;2023-07-20T13:41:10;5.5;;;3.4;;
51491;SDS011;37569;50.548;8.778;2023-07-20T13:46:11;3.7;;;3.1;;
51491;SDS011;37569;50.548;8.778;2023-07-20T13:51:12;4.6;;;3.4;;
51491;SDS011;37569;50.548;8.778;2023-07-20T13:56:13;4.5;;;3;;
51491;SDS011;37569;50.548;8.778;2023-07-20T14:01:14;4.1;;;3;;
51491;SDS011;37569;50.548;8.778;2023-07-20T14:06:15;3.8;;;3.1;;
51491;SDS011;37569;50.548;8.778;2023-07-20T14:11:16;3.8;;;2.9;;
51491;SDS011;37569;50.548;8.778;2023-07-20T14:16:17;4.3;;;3.1;;
51491;SDS011;37569;50.548;8.778;2023-07-20T14:21:19;4.3;;;2.8;;
51491;SDS011;37569;50.548;8.778;2023-07-20T14:26:19;3.4;;;3;;
51491;SDS011;37569;50.548;8.778;2023-07-20T14:31:20;3.8;;;3.1;;
51491;SDS011;37569;50.548;8.778;2023-07-20T14:36:21;3.4;;;3;;
51491;SDS011;37569;50.548;8.778;2023-07-20T14:41:22;4.1;;;3.1;;
51491;SDS011;37569;50.548;8.778;2023-07-20T14:46:23;4.5;;;3.1;;
51491;SDS011;37569;50.548;8.778;2023-07-20T14:51:24;6;;;3.3;;
51491;SDS011;37569;50.548;8.778;2023-07-20T14:56:25;3.5;;;3.2;;
51491;SDS011;37569;50.548;8.778;2023-07-20T15:01:26;5.7;;;3.5;;
51491;SDS011;37569;50.548;8.778;2023-07-20T15:06:27;3.5;;;3.2;;
51491;SDS011;37569;50.548;8.778;2023-07-20T15:11:28;3.4;;;3.1;;
51491;SDS011;37569;50.548;8.778;2023-07-20T15:16:29;5.7;;;3.6;;
51491;SDS011;37569;50.548;8.778;2023-07-20T15:21:30;4.1;;;3.4;;
51491;SDS011;37569;50.548;8.778;2023-07-20T15:26:31;4.9;;;3;;
51491;SDS011;37569;50.548;8.778;2023-07-20T15:31:32;5.6;;;2.9;;
51491;SDS011;37569;50.548;8.778;2023-07-20T15:36:33;3.3;;;2.8;;
51491;SDS011;37569;50.548;8.778;2023-07-20T15:41:34;2.7;;;2.5;;
51491;SDS011;37569;50.548;8.778;2023-07-20T15:46:50;2.9;;;2.6;;
51491;SDS011;37569;50.548;8.778;2023-07-20T15:51:36;3.2;;;2.7;;
51491;SDS011;37569;50.548;8.778;2023-07-20T15:56:37;2.8;;;2.5;;
51491;SDS011;37569;50.548;8.778;2023-07-20T16:01:38;3.2;;;2.5;;
51491;SDS011;37569;50.548;8.778;2023-07-20T16:06:39;4.2;;;2.5;;
51491;SDS011;37569;50.548;8.778;2023-07-20T16:11:40;2.8;;;2.5;;
51491;SDS011;37569;50.548;8.778;2023-07-20T16:16:41;2.5;;;1.9;;
51491;SDS011;37569;50.548;8.778;2023-07-20T16:21:42;2.7;;;2.1;;
51491;SDS011;37569;50.548;8.778;2023-07-20T16:26:43;2.3;;;2.1;;
51491;SDS011;37569;50.548;8.778;2023-07-20T16:31:44;1.9;;;1.8;;
51491;SDS011;37569;50.548;8.778;2023-07-20T16:36:45;2.1;;;1.7;;
51491;SDS011;37569;50.548;8.778;2023-07-20T16:41:46;3.7;;;2.1;;
51491;SDS011;37569;50.548;8.778;2023-07-20T16:46:47;2.4;;;2.2;;
51491;SDS011;37569;50.548;8.778;2023-07-20T16:51:48;2.6;;;2.1;;
51491;SDS011;37569;50.548;8.778;2023-07-20T16:56:49;3;;;2.6;;
51491;SDS011;37569;50.548;8.778;2023-07-20T17:01:50;3.3;;;2.3;;
51491;SDS011;37569;50.548;8.778;2023-07-20T17:06:51;2.8;;;2.3;;
51491;SDS011;37569;50.548;8.778;2023-07-20T17:11:52;2.4;;;2.2;;
51491;SDS011;37569;50.548;8.778;2023-07-20T17:16:53;3;;;2.3;;
51491;SDS011;37569;50.548;8.778;2023-07-20T17:21:54;2.5;;;2.1;;
51491;SDS011;37569;50.548;8.778;2023-07-20T17:26:55;3.6;;;2.2;;
51491;SDS011;37569;50.548;8.778;2023-07-20T17:31:56;2.4;;;2.2;;
51491;SDS011;37569;50.548;8.778;2023-07-20T17:36:57;2.8;;;2.4;;
51491;SDS011;37569;50.548;8.778;2023-07-20T17:41:58;3.7;;;2.3;;
51491;SDS011;37569;50.548;8.778;2023-07-20T17:46:59;3.1;;;2.4;;
51491;SDS011;37569;50.548;8.778;2023-07-20T17:52:00;3.2;;;2.2;;
51491;SDS011;37569;50.548;8.778;2023-07-20T17:57:01;3.9;;;2.4;;
51491;SDS011;37569;50.548;8.778;2023-07-20T18:02:02;2.5;;;2.3;;
51491;SDS011;37569;50.548;8.778;2023-07-20T18:07:03;3.5;;;2.1;;
51491;SDS011;37569;50.548;8.778;2023-07-20T18:12:04;2.4;;;2.2;;
51491;SDS011;37569;50.548;8.778;2023-07-20T18:17:05;3.5;;;2.2;;
51491;SDS011;37569;50.548;8.778;2023-07-20T18:22:06;2.8;;;2.1;;
51491;SDS011;37569;50.548;8.778;2023-07-20T18:27:07;2.7;;;2.5;;
51491;SDS011;37569;50.548;8.778;2023-07-20T18:32:08;2.5;;;2.3;;
51491;SDS011;37569;50.548;8.778;2023-07-20T18:37:08;3.3;;;2.3;;
51491;SDS011;37569;50.548;8.778;2023-07-20T18:42:09;3.2;;;2.2;;
51491;SDS011;37569;50.548;8.778;2023-07-20T18:47:10;2.8;;;2.4;;
51491;SDS011;37569;50.548;8.778;2023-07-20T18:52:11;4.3;;;2.2;;
51491;SDS011;37569;50.548;8.778;2023-07-20T18:57:12;2.3;;;2.1;;
51491;SDS011;37569;50.548;8.778;2023-07-20T19:02:13;4.5;;;3.8;;
51491;SDS011;37569;50.548;8.778;2023-07-20T19:07:14;3.5;;;2.4;;
51491;SDS011;37569;50.548;8.778;2023-07-20T19:12:15;2.4;;;2.2;;
51491;SDS011;37569;50.548;8.778;2023-07-20T19:17:16;2.6;;;2.1;;
51491;SDS011;37569;50.548;8.778;2023-07-20T19:22:17;2.5;;;2.2;;
51491;SDS011;37569;50.548;8.778;2023-07-20T19:27:18;2.7;;;2.3;;
51491;SDS011;37569;50.548;8.778;2023-07-20T19:32:19;2.6;;;2.2;;
51491;SDS011;37569;50.548;8.778;2023-07-20T19:37:19;3;;;2.3;;
51491;SDS011;37569;50.548;8.778;2023-07-20T19:42:21;3.8;;;2.4;;
51491;SDS011;37569;50.548;8.778;2023-07-20T19:47:21;3.4;;;2.6;;
51491;SDS011;37569;50.548;8.778;2023-07-20T19:52:22;4.2;;;2.6;;
51491;SDS011;37569;50.548;8.778;2023-07-20T19:57:23;3.3;;;2.6;;
51491;SDS011;37569;50.548;8.778;2023-07-20T20:02:24;3.5;;;2.5;;
51491;SDS011;37569;50.548;8.778;2023-07-20T20:07:25;2.8;;;2.5;;
51491;SDS011;37569;50.548;8.778;2023-07-20T20:12:26;2.5;;;2.3;;
51491;SDS011;37569;50.548;8.778;2023-07-20T20:17:26;4.8;;;2.4;;
51491;SDS011;37569;50.548;8.778;2023-07-20T20:22:27;3.3;;;2.4;;
51491;SDS011;37569;50.548;8.778;2023-07-20T20:27:28;4.4;;;2.5;;
51491;SDS011;37569;50.548;8.778;2023-07-20T20:32:29;3.5;;;2.3;;
51491;SDS011;37569;50.548;8.778;2023-07-20T20:37:30;4.5;;;2.6;;
51491;SDS011;37569;50.548;8.778;2023-07-20T20:42:31;2.4;;;2.2;;
51491;SDS011;37569;50.548;8.778;2023-07-20T20:47:32;2.5;;;2.2;;
51491;SDS011;37569;50.548;8.778;2023-07-20T20:52:32;5.1;;;2.4;;
51491;SDS011;37569;50.548;8.778;2023-07-20T20:57:33;3.6;;;2.5;;
51491;SDS011;37569;50.548;8.778;2023-07-20T21:02:34;4;;;2.4;;
51491;SDS011;37569;50.548;8.778;2023-07-20T21:07:35;3.3;;;2.6;;
51491;SDS011;37569;50.548;8.778;2023-07-20T21:12:36;4;;;2.9;;
51491;SDS011;37569;50.548;8.778;2023-07-20T21:17:37;3.5;;;2.8;;
51491;SDS011;37569;50.548;8.778;2023-07-20T21:22:37;3.4;;;2.7;;
51491;SDS011;37569;50.548;8.778;2023-07-20T21:27:38;4.2;;;2.6;;
51491;SDS011;37569;50.548;8.778;2023-07-20T21:32:39;4.5;;;2.7;;
51491;SDS011;37569;50.548;8.778;2023-07-20T21:37:40;3;;;2.7;;
51491;SDS011;37569;50.548;8.778;2023-07-20T21:42:41;5.2;;;3.4;;
51491;SDS011;37569;50.548;8.778;2023-07-20T21:47:41;3.2;;;2.9;;
51491;SDS011;37569;50.548;8.778;2023-07-20T21:52:42;4.4;;;3.1;;
51491;SDS011;37569;50.548;8.778;2023-07-20T21:57:43;4.3;;;2.9;;
51491;SDS011;37569;50.548;8.778;2023-07-20T22:02:44;4.2;;;3;;
51491;SDS011;37569;50.548;8.778;2023-07-20T22:07:45;3.8;;;3;;
51491;SDS011;37569;50.548;8.778;2023-07-20T22:12:46;3.3;;;3;;
51491;SDS011;37569;50.548;8.778;2023-07-20T22:17:46;4.2;;;3.2;;
51491;SDS011;37569;50.548;8.778;2023-07-20T22:22:47;5.8;;;3.1;;
51491;SDS011;37569;50.548;8.778;2023-07-20T22:27:48;4.3;;;2.9;;
51491;SDS011;37569;50.548;8.778;2023-07-20T22:32:49;5.7;;;3;;
51491;SDS011;37569;50.548;8.778;2023-07-20T22:37:49;6.7;;;3.3;;
51491;SDS011;37569;50.548;8.778;2023-07-20T22:42:50;3.9;;;3;;
51491;SDS011;37569;50.548;8.778;2023-07-20T22:47:51;3.9;;;2.6;;
51491;SDS011;37569;50.548;8.778;2023-07-20T22:52:52;4.4;;;2.8;;
51491;SDS011;37569;50.548;8.778;2023-07-20T22:57:53;5.1;;;2.9;;
51491;SDS011;37569;50.548;8.778;2023-07-20T23:02:54;4;;;3;;
51491;SDS011;37569;50.548;8.778;2023-07-20T23:07:54;3.9;;;2.9;;
51491;SDS011;37569;50.548;8.778;2023-07-20T23:12:55;4.5;;;3.1;;
51491;SDS011;37569;50.548;8.778;2023-07-20T23:17:56;3.4;;;2.7;;
51491;SDS011;37569;50.548;8.778;2023-07-20T23:22:57;3.4;;;2.8;;
51491;SDS011;37569;50.548;8.778;2023-07-20T23:27:57;4.1;;;3.1;;
51491;SDS011;37569;50.548;8.778;2023-07-20T23:32:58;3.5;;;2.8;;
51491;SDS011;37569;50.548;8.778;2023-07-20T23:37:59;5.1;;;3;;
51491;SDS011;37569;50.548;8.778;2023-07-20T23:43:00;4;;;3.2;;
51491;SDS011;37569;50.548;8.778;2023-07-20T23:48:00;4.4;;;3;;
51491;SDS011;37569;50.548;8.778;2023-07-20T23:53:01;4.1;;;3.2;;
51491;SDS011;37569;50.548;8.778;2023-07-20T23:58:02;4.6;;;3;;
